createdAt,value
2018-01-21T00:02:05.618Z,90.80
2018-01-21T00:04:33.055Z,90.80
2018-01-21T00:07:00.512Z,91.10
2018-01-21T00:09:27.959Z,91.10
2018-01-21T00:11:55.401Z,91.10
2018-01-21T00:14:22.839Z,91.50
2018-01-21T00:16:50.276Z,91.50
2018-01-21T00:19:17.946Z,91.90
2018-01-21T00:21:45.394Z,92.00
2018-01-21T00:24:12.840Z,92.00
2018-01-21T00:26:40.288Z,92.10
2018-01-21T00:29:07.745Z,92.20
2018-01-21T00:31:35.212Z,92.30
2018-01-21T00:34:02.680Z,92.60
2018-01-21T00:36:30.120Z,92.70
2018-01-21T00:38:57.560Z,92.90
2018-01-21T00:41:25.011Z,92.80
2018-01-21T00:43:52.470Z,93.10
2018-01-21T00:46:19.907Z,93.40
2018-01-21T00:48:47.344Z,93.30
2018-01-21T00:51:14.793Z,93.60
2018-01-21T00:53:42.239Z,93.40
2018-01-21T00:56:10.456Z,94.00
2018-01-21T00:58:37.919Z,94.00
2018-01-21T01:01:05.555Z,94.10
2018-01-21T01:03:33.000Z,94.30
2018-01-21T01:06:01.220Z,94.90
2018-01-21T01:08:28.680Z,94.80
2018-01-21T01:10:56.140Z,94.70
2018-01-21T01:13:23.599Z,94.80
2018-01-21T01:15:51.055Z,94.70
2018-01-21T01:18:18.509Z,94.70
2018-01-21T01:20:45.969Z,94.70
2018-01-21T01:23:13.624Z,94.60
2018-01-21T01:25:41.088Z,94.90
2018-01-21T01:28:08.556Z,94.90
2018-01-21T01:30:36.017Z,94.90
2018-01-21T01:33:03.484Z,94.70
2018-01-21T01:35:30.926Z,94.80
2018-01-21T01:37:58.394Z,94.90
2018-01-21T01:40:25.842Z,95.00
2018-01-21T01:42:53.291Z,95.00
2018-01-21T01:45:20.759Z,94.80
2018-01-21T01:47:48.226Z,94.70
2018-01-21T01:50:15.685Z,94.70
2018-01-21T01:52:43.129Z,94.80
2018-01-21T01:55:10.596Z,94.70
2018-01-21T01:57:38.044Z,94.80
2018-01-21T02:00:05.496Z,94.80
2018-01-21T02:02:32.957Z,94.90
2018-01-21T02:05:00.412Z,95.00
2018-01-21T02:07:27.869Z,94.70
2018-01-21T02:09:55.324Z,94.80
2018-01-21T02:12:22.775Z,94.80
2018-01-21T02:14:50.237Z,94.90
2018-01-21T02:17:17.691Z,94.70
2018-01-21T02:19:45.150Z,94.70
2018-01-21T02:22:12.629Z,94.80
2018-01-21T02:24:40.066Z,94.90
2018-01-21T02:27:07.535Z,95.00
2018-01-21T02:29:34.984Z,95.00
2018-01-21T02:32:02.448Z,95.20
2018-01-21T02:34:29.904Z,95.20
2018-01-21T02:36:57.364Z,95.30
2018-01-21T02:39:24.808Z,95.10
2018-01-21T02:41:52.264Z,95.00
2018-01-21T02:44:19.715Z,94.90
2018-01-21T02:46:47.177Z,95.10
2018-01-21T02:49:14.629Z,94.90
2018-01-21T02:51:42.081Z,95.20
2018-01-21T02:54:09.546Z,94.80
2018-01-21T02:56:37.001Z,94.90
2018-01-21T02:59:04.459Z,95.00
2018-01-21T03:01:31.912Z,94.60
2018-01-21T03:03:59.388Z,94.70
2018-01-21T03:06:26.840Z,94.70
2018-01-21T03:08:54.277Z,94.50
2018-01-21T03:11:21.736Z,94.90
2018-01-21T03:13:49.188Z,94.90
2018-01-21T03:16:16.637Z,94.70
2018-01-21T03:18:44.077Z,94.60
2018-01-21T03:21:11.531Z,94.70
2018-01-21T03:23:38.971Z,94.50
2018-01-21T03:26:07.201Z,94.30
2018-01-21T03:28:34.651Z,94.20
2018-01-21T03:31:02.097Z,94.40
2018-01-21T03:33:29.567Z,94.30
2018-01-21T03:35:57.230Z,94.00
2018-01-21T03:38:24.703Z,94.00
2018-01-21T03:40:52.176Z,94.40
2018-01-21T03:43:19.633Z,94.30
2018-01-21T03:45:47.119Z,94.40
2018-01-21T03:48:14.576Z,94.30
2018-01-21T03:50:42.016Z,94.50
2018-01-21T03:53:09.466Z,94.50
2018-01-21T03:55:36.933Z,94.50
2018-01-21T03:58:04.383Z,94.40
2018-01-21T04:00:31.832Z,94.40
2018-01-21T04:02:59.296Z,94.60
2018-01-21T04:05:26.768Z,94.70
2018-01-21T04:07:55.010Z,94.60
2018-01-21T04:10:22.448Z,94.60
2018-01-21T04:12:49.925Z,94.90
2018-01-21T04:15:17.392Z,94.80
2018-01-21T04:17:44.851Z,94.60
2018-01-21T04:20:12.356Z,94.50
2018-01-21T04:22:39.821Z,94.60
2018-01-21T04:25:07.291Z,94.60
2018-01-21T04:27:34.728Z,94.60
2018-01-21T04:30:02.192Z,94.70
2018-01-21T04:32:29.645Z,94.50
2018-01-21T04:34:57.097Z,94.60
2018-01-21T04:37:24.531Z,94.80
2018-01-21T04:39:52.776Z,94.80
2018-01-21T04:42:20.379Z,94.80
2018-01-21T04:44:47.820Z,94.80
2018-01-21T04:47:16.035Z,94.50
2018-01-21T04:49:43.506Z,94.40
2018-01-21T04:52:10.944Z,94.70
2018-01-21T04:54:38.383Z,94.80
2018-01-21T04:57:05.845Z,94.50
2018-01-21T04:59:33.284Z,94.50
2018-01-21T05:02:00.756Z,94.60
2018-01-21T05:04:28.217Z,94.50
2018-01-21T05:06:55.678Z,94.70
2018-01-21T05:09:23.141Z,94.30
2018-01-21T05:11:50.604Z,94.50
2018-01-21T05:14:18.484Z,94.20
2018-01-21T05:16:45.927Z,94.30
2018-01-21T05:19:13.370Z,94.10
2018-01-21T05:21:40.839Z,94.40
2018-01-21T05:24:08.296Z,94.60
2018-01-21T05:26:35.856Z,94.10
2018-01-21T05:29:03.315Z,94.20
2018-01-21T05:31:30.755Z,94.30
2018-01-21T05:33:58.207Z,94.50
2018-01-21T05:36:25.659Z,94.10
2018-01-21T05:38:53.140Z,94.10
2018-01-21T05:41:20.603Z,93.90
2018-01-21T05:43:48.056Z,93.80
2018-01-21T05:46:15.528Z,93.90
2018-01-21T05:48:42.968Z,94.10
2018-01-21T05:51:10.433Z,94.00
2018-01-21T05:53:37.880Z,93.90
2018-01-21T05:56:05.323Z,93.30
2018-01-21T05:58:32.776Z,93.70
2018-01-21T06:01:00.253Z,93.10
2018-01-21T06:03:27.688Z,93.00
2018-01-21T06:05:55.149Z,93.10
2018-01-21T06:08:22.580Z,93.20
2018-01-21T06:10:50.051Z,93.10
2018-01-21T06:13:17.501Z,93.30
2018-01-21T06:15:45.220Z,93.30
2018-01-21T06:18:12.647Z,93.00
2018-01-21T06:20:40.096Z,92.30
2018-01-21T06:23:08.310Z,92.80
2018-01-21T06:25:35.751Z,92.80
2018-01-21T06:28:03.210Z,92.40
2018-01-21T06:30:30.644Z,92.80
2018-01-21T06:32:58.108Z,92.50
2018-01-21T06:35:25.551Z,92.70
2018-01-21T06:37:53.016Z,92.60
2018-01-21T06:40:20.482Z,92.70
2018-01-21T06:42:47.916Z,92.60
2018-01-21T06:45:16.125Z,92.50
2018-01-21T06:47:43.570Z,92.40
2018-01-21T06:50:11.007Z,92.20
2018-01-21T06:52:38.464Z,93.00
2018-01-21T06:55:05.919Z,92.80
2018-01-21T06:57:33.363Z,92.30
2018-01-21T07:00:00.808Z,92.40
2018-01-21T07:02:28.263Z,92.40
2018-01-21T07:04:55.720Z,92.40
2018-01-21T07:07:23.439Z,92.40
2018-01-21T07:09:50.888Z,92.60
2018-01-21T07:12:18.323Z,92.40
2018-01-21T07:14:45.780Z,92.50
2018-01-21T07:17:14.180Z,92.20
2018-01-21T07:19:41.640Z,92.20
2018-01-21T07:22:09.096Z,92.10
2018-01-21T07:24:36.579Z,92.10
2018-01-21T07:27:04.012Z,92.00
2018-01-21T07:29:31.468Z,92.30
2018-01-21T07:31:58.905Z,92.30
2018-01-21T07:34:26.358Z,91.80
2018-01-21T07:36:53.800Z,92.10
2018-01-21T07:39:21.298Z,91.80
2018-01-21T07:41:48.740Z,91.40
2018-01-21T07:44:16.187Z,92.10
2018-01-21T07:46:43.644Z,92.00
2018-01-21T07:49:11.078Z,91.80
2018-01-21T07:51:38.525Z,92.00
2018-01-21T07:54:05.964Z,92.00
2018-01-21T07:56:33.403Z,91.70
2018-01-21T07:59:00.840Z,91.60
2018-01-21T08:01:29.040Z,91.00
2018-01-21T08:03:56.487Z,90.90
2018-01-21T08:06:23.919Z,91.00
2018-01-21T08:08:51.379Z,91.00
2018-01-21T08:11:18.838Z,90.40
2018-01-21T08:13:46.281Z,90.50
2018-01-21T08:16:13.739Z,90.10
2018-01-21T08:18:41.179Z,88.90
2018-01-21T08:21:08.626Z,90.00
2018-01-21T08:23:36.053Z,89.60
2018-01-21T08:26:03.508Z,87.90
2018-01-21T08:28:30.945Z,87.70
2018-01-21T08:30:58.393Z,87.10
2018-01-21T08:33:26.611Z,87.30
2018-01-21T08:35:59.625Z,87.30
2018-01-21T08:38:32.839Z,86.50
2018-01-21T08:41:05.843Z,86.20
2018-01-21T08:43:33.299Z,86.30
2018-01-21T08:46:00.740Z,85.80
2018-01-21T08:48:28.191Z,85.30
2018-01-21T08:50:55.633Z,84.50
2018-01-21T08:53:23.075Z,84.40
2018-01-21T08:55:50.550Z,84.70
2018-01-21T08:58:17.974Z,83.60
2018-01-21T09:00:45.408Z,84.30
2018-01-21T09:03:12.843Z,83.70
2018-01-21T09:05:41.063Z,82.60
2018-01-21T09:08:08.530Z,82.40
2018-01-21T09:10:35.940Z,82.30
2018-01-21T09:13:03.367Z,83.20
2018-01-21T09:15:30.803Z,81.70
2018-01-21T09:17:58.257Z,81.40
2018-01-21T09:20:25.686Z,81.50
2018-01-21T09:22:53.136Z,81.20
2018-01-21T09:25:20.588Z,80.70
2018-01-21T09:27:48.792Z,82.40
2018-01-21T09:30:16.232Z,82.30
2018-01-21T09:32:43.677Z,81.90
2018-01-21T09:35:11.881Z,81.50
2018-01-21T09:37:39.345Z,81.50
2018-01-21T09:40:06.784Z,81.20
2018-01-21T09:42:34.235Z,81.60
2018-01-21T09:45:01.680Z,82.50
2018-01-21T09:47:29.127Z,81.00
2018-01-21T09:49:56.585Z,81.10
2018-01-21T09:52:24.021Z,80.60
2018-01-21T09:54:51.468Z,81.40
2018-01-21T09:57:18.901Z,80.50
2018-01-21T09:59:46.349Z,79.70
2018-01-21T10:02:13.802Z,80.50
2018-01-21T10:04:41.241Z,79.70
2018-01-21T10:07:08.688Z,79.70
2018-01-21T10:09:36.118Z,78.10
2018-01-21T10:12:03.604Z,78.40
2018-01-21T10:14:31.043Z,78.50
2018-01-21T10:16:58.489Z,78.50
2018-01-21T10:19:25.924Z,78.50
2018-01-21T10:21:53.374Z,77.70
2018-01-21T10:24:20.826Z,77.60
2018-01-21T10:26:48.259Z,78.00
2018-01-21T10:29:15.716Z,78.30
2018-01-21T10:31:43.143Z,78.10
2018-01-21T10:34:11.369Z,77.50
2018-01-21T10:36:38.795Z,77.30
2018-01-21T10:39:06.248Z,76.40
2018-01-21T10:41:33.674Z,76.60
2018-01-21T10:44:01.145Z,75.30
2018-01-21T10:46:28.602Z,75.00
2018-01-21T10:48:56.021Z,75.00
2018-01-21T10:51:23.501Z,74.60
2018-01-21T10:53:50.944Z,74.60
2018-01-21T10:56:18.451Z,74.00
2018-01-21T10:58:45.885Z,74.10
2018-01-21T11:01:13.328Z,73.40
2018-01-21T11:03:40.788Z,73.50
2018-01-21T11:06:08.219Z,73.80
2018-01-21T11:08:35.680Z,73.00
2018-01-21T11:11:03.118Z,74.10
2018-01-21T11:13:30.564Z,73.40
2018-01-21T11:15:58.012Z,73.20
2018-01-21T11:18:25.552Z,72.50
2018-01-21T11:20:52.988Z,72.90
2018-01-21T11:23:20.442Z,73.30
2018-01-21T11:25:47.887Z,73.20
2018-01-21T11:28:15.340Z,72.20
2018-01-21T11:30:42.776Z,72.20
2018-01-21T11:33:10.219Z,71.20
2018-01-21T11:35:37.658Z,71.00
2018-01-21T11:38:05.120Z,71.30
2018-01-21T11:40:32.658Z,71.60
2018-01-21T11:43:00.093Z,71.70
2018-01-21T11:45:27.546Z,71.40
2018-01-21T11:47:54.983Z,72.10
2018-01-21T11:50:22.497Z,72.50
2018-01-21T11:52:49.908Z,71.90
2018-01-21T11:55:17.353Z,72.10
2018-01-21T11:57:44.801Z,71.80
2018-01-21T12:00:12.239Z,71.80
2018-01-21T12:02:39.791Z,71.90
2018-01-21T12:05:07.224Z,71.50
2018-01-21T12:07:34.676Z,71.10
2018-01-21T12:10:02.108Z,70.30
2018-01-21T12:12:29.537Z,69.70
2018-01-21T12:14:56.980Z,69.70
2018-01-21T12:17:24.412Z,69.20
2018-01-21T12:19:51.859Z,68.50
2018-01-21T12:22:19.292Z,68.20
2018-01-21T12:24:46.729Z,68.60
2018-01-21T12:27:14.160Z,69.10
2018-01-21T12:29:41.599Z,70.00
2018-01-21T12:32:09.032Z,69.70
2018-01-21T12:34:36.477Z,69.80
2018-01-21T12:37:03.914Z,69.10
2018-01-21T12:39:31.356Z,69.10
2018-01-21T12:41:58.791Z,69.50
2018-01-21T12:44:26.273Z,70.00
2018-01-21T12:46:53.705Z,70.40
2018-01-21T12:49:21.135Z,69.10
2018-01-21T12:51:48.594Z,68.80
2018-01-21T12:54:16.019Z,69.10
2018-01-21T12:56:43.447Z,69.30
2018-01-21T12:59:10.892Z,68.80
2018-01-21T13:01:39.097Z,70.00
2018-01-21T13:04:06.508Z,69.90
2018-01-21T13:06:33.976Z,69.90
2018-01-21T13:09:01.416Z,69.30
2018-01-21T13:11:28.868Z,68.40
2018-01-21T13:13:56.303Z,68.20
2018-01-21T13:16:23.761Z,68.10
2018-01-21T13:18:51.180Z,67.90
2018-01-21T13:21:18.625Z,67.20
2018-01-21T13:23:46.056Z,65.00
2018-01-21T13:26:13.492Z,62.70
2018-01-21T13:28:41.083Z,60.50
2018-01-21T13:31:08.529Z,59.70
2018-01-21T13:33:35.967Z,59.20
2018-01-21T13:36:03.411Z,58.10
2018-01-21T13:38:30.854Z,57.40
2018-01-21T13:40:58.276Z,54.00
2018-01-21T13:43:26.486Z,48.90
2018-01-21T13:45:53.944Z,48.90
2018-01-21T13:48:21.368Z,48.40
2018-01-21T13:50:48.858Z,47.50
2018-01-21T13:53:16.283Z,47.00
2018-01-21T13:55:43.727Z,46.70
2018-01-21T13:58:11.149Z,46.60
2018-01-21T14:00:38.605Z,46.90
2018-01-21T14:03:06.038Z,48.40
2018-01-21T14:05:33.481Z,49.90
2018-01-21T14:08:00.903Z,51.00
2018-01-21T14:10:29.114Z,53.50
2018-01-21T14:12:56.539Z,53.40
2018-01-21T14:15:23.995Z,55.20
2018-01-21T14:17:51.424Z,56.20
2018-01-21T14:20:18.873Z,57.30
2018-01-21T14:22:46.297Z,57.60
2018-01-21T14:25:13.739Z,57.60
2018-01-21T14:27:41.166Z,58.50
2018-01-21T14:30:08.666Z,59.00
2018-01-21T14:32:36.066Z,60.20
2018-01-21T14:35:03.701Z,59.10
2018-01-21T14:37:31.139Z,59.70
2018-01-21T14:39:58.575Z,60.00
2018-01-21T14:42:26.008Z,60.60
2018-01-21T14:44:53.452Z,61.10
2018-01-21T14:47:20.914Z,60.80
2018-01-21T14:49:48.359Z,60.90
2018-01-21T14:52:15.797Z,61.60
2018-01-21T14:54:43.255Z,62.00
2018-01-21T14:57:10.696Z,62.30
2018-01-21T14:59:38.147Z,62.20
2018-01-21T15:02:05.583Z,62.40
2018-01-21T15:04:33.816Z,62.80
2018-01-21T15:07:01.466Z,62.80
2018-01-21T15:09:28.884Z,63.30
2018-01-21T15:11:56.377Z,64.00
2018-01-21T15:14:23.779Z,64.10
2018-01-21T15:16:51.226Z,64.30
2018-01-21T15:19:18.811Z,64.60
2018-01-21T15:21:47.024Z,64.80
2018-01-21T15:24:14.477Z,64.70
2018-01-21T15:26:41.912Z,65.00
2018-01-21T15:29:09.363Z,64.80
2018-01-21T15:31:36.792Z,65.00
2018-01-21T15:34:04.244Z,65.20
2018-01-21T15:36:31.672Z,65.40
2018-01-21T15:38:59.129Z,65.60
2018-01-21T15:41:26.560Z,66.00
2018-01-21T15:43:54.000Z,66.00
2018-01-21T15:46:21.447Z,66.00
2018-01-21T15:48:48.883Z,65.70
2018-01-21T15:51:16.339Z,66.00
2018-01-21T15:53:43.784Z,66.10
2018-01-21T15:56:11.251Z,66.40
2018-01-21T15:58:38.708Z,67.60
2018-01-21T16:01:06.163Z,67.60
2018-01-21T16:03:33.641Z,67.80
2018-01-21T16:06:01.088Z,68.30
2018-01-21T16:08:28.516Z,69.50
2018-01-21T16:10:56.423Z,69.10
2018-01-21T16:13:23.866Z,69.80
2018-01-21T16:15:51.314Z,69.10
2018-01-21T16:18:18.757Z,69.40
2018-01-21T16:20:46.204Z,69.10
2018-01-21T16:23:13.648Z,70.30
2018-01-21T16:25:41.092Z,69.50
2018-01-21T16:28:08.574Z,69.80
2018-01-21T16:30:35.996Z,69.30
2018-01-21T16:33:03.441Z,69.20
2018-01-21T16:35:30.892Z,69.80
2018-01-21T16:38:10.163Z,69.80
2018-01-21T16:40:37.609Z,70.00
2018-01-21T16:43:05.058Z,70.40
2018-01-21T16:45:32.516Z,70.50
2018-01-21T16:47:59.952Z,70.80
2018-01-21T16:50:27.390Z,70.70
2018-01-21T16:52:54.823Z,71.00
2018-01-21T16:55:22.267Z,71.20
2018-01-21T16:57:49.714Z,72.40
2018-01-21T17:00:17.145Z,71.70
2018-01-21T17:02:45.384Z,71.70
2018-01-21T17:05:12.831Z,71.70
2018-01-21T17:07:41.084Z,71.80
2018-01-21T17:10:08.521Z,71.90
2018-01-21T17:12:36.745Z,73.60
2018-01-21T17:15:04.187Z,73.50
2018-01-21T17:17:31.624Z,73.00
2018-01-21T17:19:59.081Z,72.60
2018-01-21T17:22:26.527Z,73.20
2018-01-21T17:24:53.989Z,73.20
2018-01-21T17:27:21.428Z,73.50
2018-01-21T17:29:48.920Z,73.40
2018-01-21T17:32:16.367Z,73.70
2018-01-21T17:34:43.791Z,73.60
2018-01-21T17:37:11.239Z,74.20
2018-01-21T17:39:38.681Z,74.20
2018-01-21T17:42:06.125Z,74.00
2018-01-21T17:44:34.344Z,73.50
2018-01-21T17:47:01.785Z,73.50
2018-01-21T17:49:29.216Z,72.90
2018-01-21T17:51:56.840Z,72.90
2018-01-21T17:54:24.281Z,72.40
2018-01-21T17:56:51.743Z,72.80
2018-01-21T17:59:19.184Z,73.70
2018-01-21T18:01:46.649Z,72.80
2018-01-21T18:04:14.111Z,73.20
2018-01-21T18:06:41.548Z,73.70
2018-01-21T18:09:08.969Z,72.50
2018-01-21T18:11:36.419Z,72.80
2018-01-21T18:14:03.974Z,72.30
2018-01-21T18:16:31.424Z,72.00
2018-01-21T18:18:58.852Z,71.90
2018-01-21T18:21:27.079Z,70.70
2018-01-21T18:23:54.513Z,70.60
2018-01-21T18:26:21.944Z,70.50
2018-01-21T18:28:49.411Z,70.60
2018-01-21T18:31:16.859Z,70.30
2018-01-21T18:33:44.316Z,70.30
2018-01-21T18:36:11.743Z,70.50
2018-01-21T18:38:39.196Z,70.40
2018-01-21T18:41:06.629Z,69.70
2018-01-21T18:43:34.094Z,69.10
2018-01-21T18:46:02.293Z,69.60
2018-01-21T18:48:29.751Z,69.50
2018-01-21T18:50:57.216Z,70.10
2018-01-21T18:53:24.633Z,70.40
2018-01-21T18:55:52.116Z,70.40
2018-01-21T18:58:19.712Z,70.50
2018-01-21T19:00:47.162Z,69.80
2018-01-21T19:03:14.616Z,69.40
2018-01-21T19:05:42.059Z,69.80
2018-01-21T19:08:09.492Z,71.70
2018-01-21T19:10:36.935Z,71.10
2018-01-21T19:13:04.372Z,71.00
2018-01-21T19:15:31.832Z,71.60
2018-01-21T19:17:59.283Z,72.70
2018-01-21T19:20:26.858Z,73.80
2018-01-21T19:22:54.298Z,74.30
2018-01-21T19:25:21.808Z,73.80
2018-01-21T19:27:49.365Z,74.40
2018-01-21T19:30:16.791Z,75.20
2018-01-21T19:32:44.250Z,74.20
2018-01-21T19:35:11.694Z,75.00
2018-01-21T19:37:39.145Z,75.80
2018-01-21T19:40:06.618Z,75.80
2018-01-21T19:42:39.762Z,76.20
2018-01-21T19:45:07.215Z,76.50
2018-01-21T19:47:34.657Z,76.90
2018-01-21T19:50:02.113Z,76.90
2018-01-21T19:52:29.564Z,76.80
2018-01-21T19:54:58.630Z,76.00
2018-01-21T19:57:26.056Z,75.90
2018-01-21T19:59:53.522Z,75.80
2018-01-21T20:02:20.987Z,76.50
2018-01-21T20:04:48.393Z,77.70
2018-01-21T20:07:15.836Z,78.00
2018-01-21T20:09:43.292Z,77.60
2018-01-21T20:12:10.731Z,77.80
2018-01-21T20:14:38.188Z,78.50
2018-01-21T20:17:05.628Z,78.50
2018-01-21T20:19:33.102Z,78.60
2018-01-21T20:22:00.540Z,78.80
2018-01-21T20:24:28.003Z,79.70
2018-01-21T20:26:55.432Z,79.50
2018-01-21T20:29:23.660Z,79.80
2018-01-21T20:31:51.879Z,79.50
2018-01-21T20:34:20.112Z,79.40
2018-01-21T20:36:47.574Z,79.40
2018-01-21T20:39:15.062Z,79.50
2018-01-21T20:41:42.504Z,79.40
2018-01-21T20:44:09.970Z,79.50
2018-01-21T20:46:37.425Z,79.60
2018-01-21T20:49:04.874Z,79.80
2018-01-21T20:51:38.051Z,80.20
2018-01-21T20:54:11.126Z,79.80
2018-01-21T20:56:38.569Z,79.20
2018-01-21T20:59:06.036Z,78.60
2018-01-21T21:01:33.454Z,79.20
2018-01-21T21:04:00.908Z,79.40
2018-01-21T21:06:28.341Z,78.90
2018-01-21T21:08:55.852Z,78.90
2018-01-21T21:11:23.324Z,79.10
2018-01-21T21:13:50.765Z,79.00
2018-01-21T21:16:18.195Z,79.60
2018-01-21T21:18:45.648Z,80.20
2018-01-21T21:21:13.075Z,80.10
2018-01-21T21:23:40.527Z,79.90
2018-01-21T21:26:07.975Z,80.60
2018-01-21T21:28:35.447Z,80.80
2018-01-21T21:31:02.935Z,80.60
2018-01-21T21:33:30.384Z,80.20
2018-01-21T21:35:57.839Z,80.90
2018-01-21T21:38:25.276Z,81.30
2018-01-21T21:40:52.725Z,81.40
2018-01-21T21:43:20.172Z,81.10
2018-01-21T21:45:47.659Z,81.30
2018-01-21T21:48:15.103Z,81.20
2018-01-21T21:50:42.560Z,81.40
2018-01-21T21:53:09.996Z,82.20
2018-01-21T21:55:37.513Z,81.70
2018-01-21T21:58:05.755Z,81.50
2018-01-21T22:00:33.192Z,81.40
2018-01-21T22:03:00.642Z,81.60
2018-01-21T22:05:28.115Z,81.20
2018-01-21T22:07:55.549Z,81.60
2018-01-21T22:10:23.015Z,80.80
2018-01-21T22:12:50.452Z,81.20
2018-01-21T22:15:18.083Z,81.10
2018-01-21T22:17:45.535Z,81.30
2018-01-21T22:20:12.978Z,81.30
2018-01-21T22:22:40.428Z,81.60
2018-01-21T22:25:07.869Z,81.50
2018-01-21T22:27:35.325Z,81.60
2018-01-21T22:30:02.772Z,81.40
2018-01-21T22:32:30.223Z,81.00
2018-01-21T22:34:57.685Z,81.00
2018-01-21T22:37:25.144Z,80.80
2018-01-21T22:39:52.599Z,81.30
2018-01-21T22:42:20.037Z,80.90
2018-01-21T22:44:47.492Z,80.60
2018-01-21T22:47:14.942Z,80.50
2018-01-21T22:49:42.371Z,79.80
2018-01-21T22:52:09.828Z,79.60
2018-01-21T22:54:37.268Z,80.00
2018-01-21T22:57:04.711Z,79.00
2018-01-21T22:59:32.307Z,79.40
2018-01-21T23:01:59.760Z,78.50
2018-01-21T23:04:27.191Z,78.40
2018-01-21T23:06:54.653Z,78.70
2018-01-21T23:09:22.103Z,79.00
2018-01-21T23:11:49.564Z,78.60
2018-01-21T23:14:17.006Z,78.80
2018-01-21T23:16:44.462Z,78.40
2018-01-21T23:19:11.888Z,78.60
2018-01-21T23:21:39.451Z,78.80
2018-01-21T23:24:06.895Z,78.50
2018-01-21T23:26:34.336Z,78.60
2018-01-21T23:29:02.561Z,78.80
2018-01-21T23:31:30.002Z,78.60
2018-01-21T23:33:57.435Z,78.80
2018-01-21T23:36:24.883Z,78.50
2018-01-21T23:38:52.329Z,78.10
2018-01-21T23:41:19.760Z,78.10
2018-01-21T23:43:47.209Z,77.90
2018-01-21T23:46:14.641Z,78.20
2018-01-21T23:48:42.089Z,77.60
2018-01-21T23:51:09.525Z,77.90
2018-01-21T23:53:37.016Z,77.80
2018-01-21T23:56:04.442Z,77.30
2018-01-21T23:58:31.861Z,77.30
